Time;durP1;ratioP1;P1;durP2;ratioP2;P2;SDS_P1;SDS_P2;PMS_P1;PMS_P2;Temp;Humidity;BMP_temperature;BMP_pressure;BME280_temperature;BME280_humidity;BME280_pressure;Samples;Min_cycle;Max_cycle;Signal;HPM_P1;HPM_P2
2022/10/22 00:00:39;;;;;;;15.10;7.78;;;13.70;99.90;;;;;;5032298;28;20057;-75
2022/10/22 00:03:05;;;;;;;17.58;9.25;;;13.80;99.90;;;;;;5013787;28;20036;-75
2022/10/22 00:05:30;;;;;;;15.30;9.15;;;13.70;99.90;;;;;;5031760;28;20091;-75
2022/10/22 00:07:56;;;;;;;13.85;9.27;;;13.70;99.90;;;;;;5013948;28;20032;-75
2022/10/22 00:10:22;;;;;;;17.25;9.35;;;13.80;99.90;;;;;;5032089;28;20029;-75
2022/10/22 00:12:47;;;;;;;11.02;9.35;;;13.80;99.90;;;;;;5013873;28;20022;-75
2022/10/22 00:15:13;;;;;;;11.00;8.60;;;13.70;99.90;;;;;;5013922;28;20025;-75
2022/10/22 00:17:38;;;;;;;11.52;8.48;;;13.80;99.90;;;;;;5033001;28;20112;-75
2022/10/22 00:20:05;;;;;;;15.90;9.68;;;13.80;99.90;;;;;;5016634;28;20071;-75
2022/10/22 00:22:31;;;;;;;14.68;9.05;;;13.80;99.90;;;;;;5015993;28;20113;-75
2022/10/22 00:25:06;;;;;;;14.40;8.68;;;13.80;99.90;;;;;;5033247;28;20044;-75
2022/10/22 00:27:31;;;;;;;13.75;8.55;;;13.90;99.90;;;;;;5034617;28;20047;-75
2022/10/22 00:29:57;;;;;;;17.38;9.43;;;13.90;99.90;;;;;;5016716;28;20116;-75
2022/10/22 00:32:23;;;;;;;11.18;8.48;;;13.90;99.90;;;;;;5015685;28;20390;-75
2022/10/22 00:34:49;;;;;;;10.23;8.60;;;13.90;99.90;;;;;;5013708;28;20029;-75
2022/10/22 00:37:20;;;;;;;16.25;8.73;;;14.00;99.90;;;;;;5013226;28;20526;-75
2022/10/22 00:39:49;;;;;;;17.35;9.13;;;14.00;99.90;;;;;;5013478;28;20387;-75
2022/10/22 00:42:29;;;;;;;15.05;9.45;;;14.10;99.90;;;;;;5012937;28;20025;-75
2022/10/22 00:45:10;;;;;;;13.60;9.35;;;14.00;99.90;;;;;;5013181;28;20033;-75
2022/10/22 00:47:49;;;;;;;13.95;10.00;;;14.00;99.90;;;;;;5030877;28;20049;-75
2022/10/22 00:50:25;;;;;;;12.73;9.75;;;14.00;99.90;;;;;;5013257;28;20433;-75
2022/10/22 00:52:51;;;;;;;16.17;9.50;;;14.00;99.90;;;;;;5030085;28;20017;-75
2022/10/22 00:55:19;;;;;;;16.15;9.55;;;14.00;99.90;;;;;;5012804;28;20112;-75
2022/10/22 00:57:45;;;;;;;17.40;9.57;;;14.00;99.90;;;;;;5012890;28;20410;-75
2022/10/22 01:00:14;;;;;;;17.08;9.95;;;14.00;99.90;;;;;;5012553;28;20026;-75
2022/10/22 01:02:43;;;;;;;15.85;9.98;;;14.00;99.90;;;;;;5011011;28;20367;-75
2022/10/22 01:05:12;;;;;;;21.63;9.52;;;14.00;99.90;;;;;;5015849;28;20022;-75
2022/10/22 01:07:43;;;;;;;15.18;9.70;;;14.00;99.90;;;;;;5016522;28;20036;-75
2022/10/22 01:10:28;;;;;;;19.50;9.98;;;14.00;99.90;;;;;;5016563;28;20022;-75
2022/10/22 01:13:30;;;;;;;15.38;9.98;;;14.00;99.90;;;;;;5016250;28;20017;-75
2022/10/22 01:16:07;;;;;;;14.60;10.35;;;14.00;99.90;;;;;;5016596;28;20025;-75
2022/10/22 01:18:45;;;;;;;14.90;10.38;;;14.00;99.90;;;;;;5034500;28;20079;-75
2022/10/22 01:21:17;;;;;;;19.05;10.80;;;14.00;99.90;;;;;;5016275;28;20033;-75
2022/10/22 01:24:01;;;;;;;16.50;11.10;;;14.00;99.90;;;;;;5016006;28;20060;-75
2022/10/22 01:26:49;;;;;;;13.40;9.25;;;14.00;99.90;;;;;;5033768;28;20183;-75
2022/10/22 01:29:21;;;;;;;16.65;10.77;;;14.00;99.90;;;;;;5016027;28;20116;-75
2022/10/22 01:31:56;;;;;;;13.75;9.77;;;14.00;99.90;;;;;;5015534;28;20071;-75
2022/10/22 01:34:24;;;;;;;15.65;10.00;;;14.00;99.90;;;;;;5016129;28;20022;-75
2022/10/22 01:36:52;;;;;;;13.23;9.77;;;14.00;99.90;;;;;;5015943;28;20234;-75
2022/10/22 01:39:22;;;;;;;13.27;8.52;;;14.00;99.90;;;;;;5016008;28;20029;-75
2022/10/22 01:41:54;;;;;;;16.73;10.73;;;14.00;99.90;;;;;;5033072;28;20556;-75
2022/10/22 01:44:30;;;;;;;18.58;13.38;;;13.90;99.90;;;;;;5025722;28;20037;-75
2022/10/22 01:47:13;;;;;;;20.00;14.45;;;13.90;99.90;;;;;;5027045;28;20052;-76
2022/10/22 01:50:31;;;;;;;29.77;20.08;;;13.90;99.90;;;;;;5021509;28;20508;-76
2022/10/22 01:53:19;;;;;;;26.92;21.23;;;13.90;99.90;;;;;;5008023;28;20033;-75
2022/10/22 01:56:12;;;;;;;32.88;23.52;;;13.90;99.90;;;;;;5014010;28;20022;-75
2022/10/22 01:58:59;;;;;;;40.67;29.38;;;13.90;99.90;;;;;;5011059;28;20021;-75
2022/10/22 02:02:04;;;;;;;35.63;27.90;;;13.90;99.90;;;;;;5003000;28;20237;-75
2022/10/22 02:04:40;;;;;;;33.78;25.20;;;13.90;99.90;;;;;;4997469;28;20145;-75
2022/10/22 02:07:08;;;;;;;26.15;20.33;;;13.80;99.90;;;;;;5021851;28;20394;-77
2022/10/22 02:09:35;;;;;;;27.83;19.08;;;13.80;99.90;;;;;;5006742;28;20475;-76
2022/10/22 02:12:05;;;;;;;24.63;17.80;;;13.80;99.90;;;;;;5022125;28;20071;-77
2022/10/22 02:14:32;;;;;;;22.73;15.93;;;13.80;99.90;;;;;;5005713;28;20079;-76
2022/10/22 02:17:00;;;;;;;19.55;14.07;;;13.70;99.90;;;;;;5022544;28;20037;-76
2022/10/22 02:19:34;;;;;;;22.05;14.70;;;13.70;99.90;;;;;;5003831;28;20504;-76
2022/10/22 02:22:00;;;;;;;22.13;13.32;;;13.70;99.90;;;;;;5021565;28;20044;-76
2022/10/22 02:24:26;;;;;;;21.15;13.75;;;13.70;99.90;;;;;;5022494;28;20530;-76
2022/10/22 02:27:00;;;;;;;19.27;13.75;;;13.70;99.90;;;;;;5003116;28;20479;-75
2022/10/22 02:29:48;;;;;;;18.38;12.13;;;13.70;99.90;;;;;;5004462;28;20112;-75
2022/10/22 02:32:19;;;;;;;18.27;12.82;;;13.70;99.90;;;;;;4996132;28;20564;-75
2022/10/22 02:34:47;;;;;;;19.73;12.95;;;13.70;99.90;;;;;;5006135;28;20029;-75
2022/10/22 02:37:14;;;;;;;17.90;14.32;;;13.80;99.90;;;;;;5003359;28;20528;-75
2022/10/22 02:39:41;;;;;;;13.98;11.10;;;13.80;99.90;;;;;;5004218;28;20033;-75
2022/10/22 02:42:08;;;;;;;21.42;12.75;;;13.80;99.90;;;;;;5002830;28;20030;-75
2022/10/22 02:44:33;;;;;;;16.42;12.20;;;13.70;99.90;;;;;;5004840;28;20390;-75
2022/10/22 02:46:59;;;;;;;17.77;11.00;;;13.70;99.90;;;;;;5023301;28;20017;-74
2022/10/22 02:49:25;;;;;;;17.58;12.52;;;13.70;99.90;;;;;;5003778;28;20033;-74
2022/10/22 02:51:51;;;;;;;13.18;10.30;;;13.70;99.90;;;;;;5020858;28;20473;-74
2022/10/22 02:54:17;;;;;;;12.93;10.27;;;13.70;99.90;;;;;;5002177;28;20053;-74
2022/10/22 02:56:42;;;;;;;16.60;10.77;;;13.70;99.90;;;;;;5011889;28;20018;-74
2022/10/22 02:59:08;;;;;;;16.77;9.95;;;13.70;99.90;;;;;;4994459;28;20364;-74
2022/10/22 03:01:34;;;;;;;15.05;10.18;;;13.70;99.90;;;;;;5005252;28;20038;-74
2022/10/22 03:03:59;;;;;;;14.30;10.48;;;13.70;99.90;;;;;;5014037;28;20148;-76
2022/10/22 03:06:25;;;;;;;12.00;9.73;;;13.70;99.90;;;;;;4995858;28;20120;-75
2022/10/22 03:08:53;;;;;;;12.00;9.93;;;13.70;99.90;;;;;;5011900;28;20153;-75
2022/10/22 03:11:19;;;;;;;14.02;11.57;;;13.70;99.90;;;;;;5011751;28;20033;-75
2022/10/22 03:13:44;;;;;;;11.80;9.30;;;13.70;99.90;;;;;;5011888;28;20026;-74
2022/10/22 03:16:09;;;;;;;16.83;9.45;;;13.60;99.90;;;;;;5012245;28;20387;-75
2022/10/22 03:18:38;;;;;;;14.90;9.60;;;13.60;99.90;;;;;;5011783;28;20033;-75
2022/10/22 03:21:34;;;;;;;16.85;12.20;;;13.60;99.90;;;;;;4994109;28;20022;-75
2022/10/22 03:24:04;;;;;;;16.85;10.20;;;13.60;99.90;;;;;;5011730;28;20072;-74
2022/10/22 03:26:30;;;;;;;15.63;11.30;;;13.60;99.90;;;;;;4993415;28;20513;-74
2022/10/22 03:28:59;;;;;;;21.52;10.60;;;13.60;99.90;;;;;;4994076;28;20489;-75
2022/10/22 03:31:25;;;;;;;17.92;12.32;;;13.60;99.90;;;;;;4993379;28;20018;-75
2022/10/22 03:33:54;;;;;;;19.88;10.95;;;13.70;99.90;;;;;;4993987;28;20025;-76
2022/10/22 03:36:23;;;;;;;14.05;9.57;;;13.60;99.90;;;;;;4993760;28;20567;-76
2022/10/22 03:38:48;;;;;;;16.30;10.95;;;13.60;99.90;;;;;;4994555;28;20418;-76
2022/10/22 03:41:14;;;;;;;15.15;10.20;;;13.60;99.90;;;;;;5011145;28;20109;-76
2022/10/22 03:43:40;;;;;;;18.63;13.38;;;13.60;99.90;;;;;;4993878;28;20033;-76
2022/10/22 03:46:06;;;;;;;16.90;12.65;;;13.60;99.90;;;;;;4993865;28;20030;-77
2022/10/22 03:48:32;;;;;;;17.35;11.63;;;13.60;99.90;;;;;;4995892;28;20034;-76
2022/10/22 03:50:58;;;;;;;19.85;12.38;;;13.60;99.90;;;;;;5004747;28;20021;-76
2022/10/22 03:53:24;;;;;;;13.60;9.98;;;13.60;99.90;;;;;;5003326;28;20052;-77
2022/10/22 03:55:49;;;;;;;15.05;11.07;;;13.50;99.90;;;;;;5004286;28;20029;-77
2022/10/22 03:58:15;;;;;;;13.45;10.45;;;13.50;99.90;;;;;;5003907;28;20029;-76
2022/10/22 04:00:46;;;;;;;19.88;11.35;;;13.40;99.90;;;;;;5000077;28;20032;-76
2022/10/22 04:03:15;;;;;;;16.85;11.82;;;13.40;99.90;;;;;;4993234;28;20030;-76
2022/10/22 04:05:40;;;;;;;14.48;10.77;;;13.50;99.90;;;;;;4993629;28;20030;-76
2022/10/22 04:08:06;;;;;;;14.23;10.57;;;13.40;99.90;;;;;;5011155;28;20040;-76
2022/10/22 04:10:32;;;;;;;13.02;9.82;;;13.50;99.90;;;;;;5013749;28;20462;-76
2022/10/22 04:12:58;;;;;;;19.80;12.07;;;13.50;99.90;;;;;;5012775;28;20525;-76
2022/10/22 04:15:27;;;;;;;17.35;11.55;;;13.50;99.90;;;;;;5030931;28;20033;-75
2022/10/22 04:17:53;;;;;;;16.27;11.32;;;13.50;99.90;;;;;;5031437;28;20377;-76
2022/10/22 04:20:19;;;;;;;18.08;10.05;;;13.40;99.90;;;;;;5013141;28;20026;-75
2022/10/22 04:22:47;;;;;;;16.45;11.27;;;13.50;99.90;;;;;;5012419;28;20108;-76
2022/10/22 04:25:13;;;;;;;18.40;11.95;;;13.40;99.90;;;;;;5012701;28;20029;-76
2022/10/22 04:27:39;;;;;;;16.55;9.23;;;13.40;99.90;;;;;;5012624;28;20032;-76
2022/10/22 04:30:05;;;;;;;14.02;10.02;;;13.50;99.90;;;;;;5013169;28;20307;-76
2022/10/22 04:32:39;;;;;;;16.27;9.52;;;13.50;99.90;;;;;;5012402;28;20481;-76
2022/10/22 04:35:08;;;;;;;15.93;9.63;;;13.40;99.90;;;;;;5030504;28;20427;-76
2022/10/22 04:37:34;;;;;;;13.82;10.35;;;13.40;99.90;;;;;;5012448;28;20025;-75
2022/10/22 04:40:03;;;;;;;16.38;9.70;;;13.40;99.90;;;;;;5029703;28;20018;-76
2022/10/22 04:42:28;;;;;;;13.73;10.00;;;13.50;99.90;;;;;;5029799;28;20025;-76
2022/10/22 04:44:57;;;;;;;14.23;10.63;;;13.50;99.90;;;;;;5012393;28;20024;-76
2022/10/22 04:47:26;;;;;;;21.27;10.18;;;13.50;99.90;;;;;;5012358;28;20033;-76
2022/10/22 04:49:52;;;;;;;21.10;12.27;;;13.50;99.90;;;;;;5012323;28;20029;-76
2022/10/22 04:52:17;;;;;;;15.48;11.13;;;13.50;99.90;;;;;;5011824;28;20017;-76
2022/10/22 04:54:44;;;;;;;15.20;11.02;;;13.60;99.90;;;;;;5011708;28;20025;-75
2022/10/22 04:57:10;;;;;;;13.57;11.20;;;13.50;99.90;;;;;;5012303;28;20114;-76
2022/10/22 04:59:35;;;;;;;19.77;12.55;;;13.50;99.90;;;;;;5012299;28;20029;-76
2022/10/22 05:02:01;;;;;;;18.95;11.15;;;13.50;99.90;;;;;;5011836;28;20027;-75
2022/10/22 05:04:26;;;;;;;21.23;12.85;;;13.50;99.90;;;;;;5030227;28;20072;-75
2022/10/22 05:06:52;;;;;;;16.13;11.52;;;13.50;99.90;;;;;;5023566;28;20034;-75
2022/10/22 05:09:20;;;;;;;23.35;12.85;;;13.50;99.90;;;;;;4992586;28;20108;-75
2022/10/22 05:11:48;;;;;;;17.00;12.43;;;13.50;99.90;;;;;;4992360;28;20022;-77
2022/10/22 05:14:16;;;;;;;17.35;11.65;;;13.50;99.90;;;;;;4992783;28;20073;-77
2022/10/22 05:16:42;;;;;;;17.85;12.75;;;13.50;99.90;;;;;;4993416;28;20038;-76
2022/10/22 05:19:13;;;;;;;18.35;12.30;;;13.40;99.90;;;;;;5020103;28;20026;-76
2022/10/22 05:21:39;;;;;;;11.90;9.75;;;13.40;99.90;;;;;;5027220;28;20026;-76
2022/10/22 05:24:04;;;;;;;17.33;10.25;;;13.40;99.90;;;;;;5003268;28;20033;-77
2022/10/22 05:26:30;;;;;;;16.67;12.15;;;13.40;99.90;;;;;;5001638;28;20021;-77
2022/10/22 05:28:56;;;;;;;16.50;11.32;;;13.40;99.90;;;;;;5002897;28;20490;-76
2022/10/22 05:31:22;;;;;;;16.05;10.60;;;13.30;99.90;;;;;;5011926;28;20052;-76
2022/10/22 05:33:48;;;;;;;15.63;10.60;;;13.30;99.90;;;;;;5012423;28;20018;-76
2022/10/22 05:36:20;;;;;;;16.45;10.57;;;13.30;99.90;;;;;;5002860;28;20029;-76
2022/10/22 05:38:49;;;;;;;16.48;11.70;;;13.20;99.90;;;;;;5003488;28;20173;-77
2022/10/22 05:41:22;;;;;;;14.02;10.32;;;13.20;99.90;;;;;;5003327;28;20029;-77
2022/10/22 05:43:48;;;;;;;15.02;10.35;;;13.20;99.90;;;;;;5003606;28;20018;-77
2022/10/22 05:46:18;;;;;;;15.45;9.93;;;13.10;99.90;;;;;;5003125;28;20598;-77
2022/10/22 05:48:48;;;;;;;15.38;9.88;;;13.10;99.90;;;;;;5000263;28;20029;-77
2022/10/22 05:51:13;;;;;;;14.80;10.70;;;13.10;99.90;;;;;;5007060;28;20476;-77
2022/10/22 05:53:41;;;;;;;15.27;10.23;;;13.00;99.90;;;;;;5026865;28;20102;-75
2022/10/22 05:56:16;;;;;;;19.23;11.15;;;13.00;99.90;;;;;;5006029;28;20014;-76
2022/10/22 05:58:43;;;;;;;20.85;14.27;;;13.00;99.90;;;;;;5006003;28;20551;-74
2022/10/22 06:01:24;;;;;;;18.63;13.00;;;13.00;99.90;;;;;;5006637;28;20040;-75
2022/10/22 06:03:59;;;;;;;23.27;14.38;;;13.10;99.90;;;;;;5013039;28;20030;-74
2022/10/22 06:06:53;;;;;;;18.60;13.05;;;13.10;99.90;;;;;;5024286;28;20087;-77
2022/10/22 06:09:33;;;;;;;22.70;17.17;;;13.20;99.90;;;;;;5026998;28;20080;-76
2022/10/22 06:11:59;;;;;;;22.83;15.13;;;13.30;99.90;;;;;;5023690;28;20017;-76
2022/10/22 06:14:25;;;;;;;15.95;11.98;;;13.30;99.90;;;;;;5005291;28;20025;-76
2022/10/22 06:16:51;;;;;;;17.85;13.40;;;13.30;99.90;;;;;;5004230;28;20455;-76
2022/10/22 06:19:20;;;;;;;23.80;14.15;;;13.30;99.90;;;;;;5021770;28;20056;-77
2022/10/22 06:21:46;;;;;;;19.67;13.40;;;13.40;99.90;;;;;;5031048;28;20062;-76
2022/10/22 06:24:12;;;;;;;20.15;13.20;;;13.40;99.90;;;;;;5015651;28;20230;-77
2022/10/22 06:26:41;;;;;;;16.90;11.98;;;13.40;99.90;;;;;;5011454;28;20033;-76
2022/10/22 06:29:10;;;;;;;17.75;11.93;;;13.40;99.90;;;;;;5006017;28;20024;-76
2022/10/22 06:31:35;;;;;;;21.95;12.82;;;13.50;99.90;;;;;;5023614;28;20049;-76
2022/10/22 06:34:06;;;;;;;12.95;9.85;;;13.50;99.90;;;;;;5003074;28;20049;-76
2022/10/22 06:36:32;;;;;;;14.35;10.48;;;13.50;99.90;;;;;;5003393;28;20017;-76
2022/10/22 06:38:58;;;;;;;14.77;9.80;;;13.60;99.90;;;;;;5005867;28;20486;-77
2022/10/22 06:41:24;;;;;;;14.95;10.30;;;13.60;99.90;;;;;;5002586;28;20026;-77
2022/10/22 06:43:50;;;;;;;18.15;10.48;;;13.60;99.90;;;;;;4995387;28;20133;-77
2022/10/22 06:46:18;;;;;;;13.85;10.27;;;13.70;99.90;;;;;;4995165;28;20562;-76
2022/10/22 06:48:51;;;;;;;20.20;11.63;;;13.70;99.90;;;;;;5001779;28;20067;-77
2022/10/22 06:51:18;;;;;;;12.27;9.80;;;13.70;99.90;;;;;;5032598;28;20025;-76
2022/10/22 06:53:44;;;;;;;14.73;9.27;;;13.70;99.90;;;;;;5028520;28;20025;-76
2022/10/22 06:56:16;;;;;;;19.90;10.63;;;13.70;99.90;;;;;;4999143;28;20020;-76
2022/10/22 06:58:41;;;;;;;14.60;9.68;;;13.70;99.90;;;;;;5012571;28;20416;-76
2022/10/22 07:01:10;;;;;;;18.83;10.10;;;13.70;99.90;;;;;;5007584;28;20036;-77
2022/10/22 07:03:37;;;;;;;20.55;9.00;;;13.70;99.90;;;;;;5013178;28;20418;-76
2022/10/22 07:06:10;;;;;;;18.33;10.25;;;13.80;99.90;;;;;;5013004;28;20448;-76
2022/10/22 07:08:44;;;;;;;18.38;10.45;;;13.80;99.90;;;;;;5004698;28;20109;-77
2022/10/22 07:11:13;;;;;;;13.65;9.30;;;13.80;99.90;;;;;;5019054;28;20025;-76
2022/10/22 07:13:39;;;;;;;16.55;9.65;;;13.90;99.90;;;;;;5020535;28;20093;-75
2022/10/22 07:16:06;;;;;;;15.18;8.75;;;13.90;99.90;;;;;;5004372;28;20137;-76
2022/10/22 07:18:31;;;;;;;15.68;8.93;;;14.00;99.90;;;;;;5006155;28;20371;-76
2022/10/22 07:20:58;;;;;;;13.57;9.65;;;14.00;99.90;;;;;;5003261;28;20036;-76
2022/10/22 07:23:24;;;;;;;14.75;8.07;;;14.10;99.90;;;;;;5006109;28;20052;-75
2022/10/22 07:25:50;;;;;;;17.65;9.05;;;14.10;99.90;;;;;;5013673;28;20040;-76
2022/10/22 07:28:25;;;;;;;13.13;7.07;;;14.20;99.90;;;;;;5031373;28;20060;-76
2022/10/22 07:30:50;;;;;;;13.98;7.85;;;14.30;99.90;;;;;;5014194;28;20061;-76
2022/10/22 07:33:16;;;;;;;12.85;7.97;;;14.30;99.90;;;;;;5030858;28;20052;-76
2022/10/22 07:35:42;;;;;;;11.98;7.15;;;14.40;99.90;;;;;;5013711;28;20030;-76
2022/10/22 07:38:09;;;;;;;10.90;7.13;;;14.50;99.90;;;;;;5013149;28;20556;-76
2022/10/22 07:40:35;;;;;;;19.05;7.75;;;14.60;99.90;;;;;;4993929;28;20034;-76
2022/10/22 07:43:04;;;;;;;19.60;7.82;;;14.70;99.90;;;;;;5001522;28;20021;-76
2022/10/22 07:45:29;;;;;;;10.23;7.40;;;14.80;99.90;;;;;;5002242;28;20022;-76
2022/10/22 07:47:55;;;;;;;10.73;6.72;;;14.80;99.90;;;;;;5002528;28;20029;-76
2022/10/22 07:50:21;;;;;;;15.88;6.57;;;14.90;99.90;;;;;;5022595;28;20493;-76
2022/10/22 07:52:46;;;;;;;9.55;6.40;;;14.90;99.90;;;;;;5012765;28;20252;-76
2022/10/22 07:55:12;;;;;;;7.18;5.95;;;14.90;99.90;;;;;;5031058;28;20455;-76
2022/10/22 07:57:41;;;;;;;10.57;6.22;;;15.00;99.90;;;;;;5013139;28;20231;-76
2022/10/22 08:00:08;;;;;;;8.85;6.63;;;15.00;99.90;;;;;;5012540;28;20044;-76
2022/10/22 08:02:34;;;;;;;18.42;9.35;;;15.00;99.90;;;;;;5012869;28;20056;-76
2022/10/22 08:05:00;;;;;;;11.23;6.95;;;15.00;99.90;;;;;;5025667;28;20022;-76
2022/10/22 08:07:25;;;;;;;13.60;6.70;;;15.00;99.90;;;;;;5006522;28;20140;-76
2022/10/22 08:09:51;;;;;;;13.02;7.38;;;15.00;99.90;;;;;;5002150;28;20083;-76
2022/10/22 08:12:25;;;;;;;14.13;7.55;;;15.00;99.90;;;;;;5010752;28;20030;-76
2022/10/22 08:14:51;;;;;;;13.10;7.88;;;15.00;99.90;;;;;;4994077;28;20030;-76
2022/10/22 08:17:17;;;;;;;11.63;6.95;;;14.90;99.90;;;;;;4993720;28;20409;-76
2022/10/22 08:19:42;;;;;;;9.73;6.65;;;14.90;99.90;;;;;;4993235;28;20083;-76
2022/10/22 08:22:08;;;;;;;15.20;7.63;;;15.00;99.90;;;;;;4992020;28;20479;-76
2022/10/22 08:24:42;;;;;;;11.82;7.10;;;15.00;99.90;;;;;;5010920;28;20022;-77
2022/10/22 08:27:10;;;;;;;12.57;7.30;;;15.00;99.90;;;;;;4993287;28;20030;-76
2022/10/22 08:29:36;;;;;;;10.57;6.60;;;15.00;99.90;;;;;;4993095;28;20030;-76
2022/10/22 08:32:05;;;;;;;9.95;6.47;;;15.00;99.90;;;;;;4992811;28;20683;-76
2022/10/22 08:34:33;;;;;;;12.13;6.18;;;15.10;99.90;;;;;;5011003;28;20392;-76
2022/10/22 08:36:59;;;;;;;10.18;7.10;;;15.20;99.90;;;;;;5012113;28;20018;-76
2022/10/22 08:39:25;;;;;;;7.47;5.55;;;15.40;99.90;;;;;;5020108;28;20024;-77
2022/10/22 08:42:19;;;;;;;8.77;6.20;;;15.40;99.90;;;;;;5003401;28;20017;-80
2022/10/22 08:45:26;;;;;;;9.10;5.50;;;15.50;99.90;;;;;;5003696;28;20265;-80
2022/10/22 08:47:57;;;;;;;6.70;4.50;;;15.60;99.90;;;;;;5003217;28;20127;-79
2022/10/22 08:50:31;;;;;;;12.23;6.03;;;15.70;99.90;;;;;;5003658;28;20325;-81
2022/10/22 08:53:05;;;;;;;13.48;5.50;;;15.80;99.90;;;;;;5023687;28;20014;-80
2022/10/22 08:55:32;;;;;;;9.45;5.35;;;15.80;99.90;;;;;;5005412;28;20028;-80
2022/10/22 08:58:02;;;;;;;12.70;5.10;;;15.90;99.90;;;;;;5019211;28;20045;-80
2022/10/22 09:00:53;;;;;;;7.63;5.28;;;16.10;99.90;;;;;;5001344;28;20733;-80
2022/10/22 09:03:56;;;;;;;11.00;4.85;;;16.30;99.90;;;;;;5005044;28;20390;-78
2022/10/22 09:06:28;;;;;;;14.88;5.22;;;16.60;99.90;;;;;;5001605;28;20107;-80
2022/10/22 09:09:01;;;;;;;8.75;4.30;;;17.90;99.90;;;;;;5029308;28;20029;-79
2022/10/22 09:11:35;;;;;;;13.77;5.72;;;19.30;99.90;;;;;;5015010;28;20025;-80
2022/10/22 09:14:03;;;;;;;8.82;3.50;;;20.90;99.90;;;;;;5014824;28;20073;-79
2022/10/22 09:17:01;;;;;;;8.32;4.55;;;22.70;99.90;;;;;;5015864;28;20025;-78
2022/10/22 09:20:07;;;;;;;5.40;2.95;;;24.70;99.90;;;;;;5029063;28;20482;-79
2022/10/22 09:23:00;;;;;;;10.75;3.70;;;26.00;96.50;;;;;;5016064;28;20014;-80
2022/10/22 09:25:28;;;;;;;7.22;3.47;;;27.40;93.30;;;;;;5035038;28;20032;-80
2022/10/22 09:27:57;;;;;;;5.95;2.92;;;28.10;91.80;;;;;;5036634;28;20033;-80
2022/10/22 09:30:28;;;;;;;6.93;2.97;;;28.00;88.50;;;;;;5019372;28;20022;-80
2022/10/22 09:33:23;;;;;;;7.32;3.45;;;28.60;87.00;;;;;;5025369;28;20029;-78
2022/10/22 09:35:55;;;;;;;7.30;3.60;;;28.60;83.80;;;;;;5028886;28;20177;-79
2022/10/22 09:38:29;;;;;;;6.50;3.10;;;28.40;83.70;;;;;;5018940;28;20045;-79
2022/10/22 09:40:57;;;;;;;7.70;3.20;;;28.90;81.00;;;;;;5035869;28;20033;-81
2022/10/22 09:43:23;;;;;;;4.75;2.92;;;29.20;83.00;;;;;;5016257;28;20386;-79
2022/10/22 09:46:05;;;;;;;3.78;3.03;;;30.10;78.80;;;;;;5007058;28;20026;-79
2022/10/22 09:48:43;;;;;;;4.90;3.00;;;30.80;76.90;;;;;;5005189;28;20479;-79
2022/10/22 09:51:24;;;;;;;6.75;2.65;;;31.20;76.00;;;;;;5015085;28;20021;-80
2022/10/22 09:54:29;;;;;;;4.72;2.65;;;31.80;73.40;;;;;;4996752;28;20080;-79
2022/10/22 09:58:06;;;;;;;;;;;;;;;;;;;;;
2022/10/22 10:00:17;;;;;;;6.70;3.17;;;32.20;68.80;;;;;;5009779;28;20033;-79
2022/10/22 10:02:42;;;;;;;6.85;3.30;;;32.10;70.10;;;;;;5008518;28;20156;-80
2022/10/22 10:05:19;;;;;;;4.05;3.05;;;31.90;67.60;;;;;;5008280;28;20026;-80
2022/10/22 10:07:47;;;;;;;6.75;3.45;;;32.20;68.60;;;;;;5007909;28;20034;-80
2022/10/22 10:10:30;;;;;;;7.75;3.65;;;32.10;65.70;;;;;;5006730;28;20045;-80
2022/10/22 10:13:21;;;;;;;8.88;3.40;;;32.60;66.60;;;;;;5029538;28;20027;-80
2022/10/22 10:15:50;;;;;;;8.30;3.72;;;32.80;65.10;;;;;;5029213;28;20024;-80
2022/10/22 10:18:46;;;;;;;7.63;3.65;;;32.60;65.30;;;;;;5009420;28;20032;-80
2022/10/22 10:21:56;;;;;;;9.93;3.25;;;30.80;67.30;;;;;;5028980;28;20493;-80
2022/10/22 10:24:30;;;;;;;10.98;3.70;;;31.30;66.30;;;;;;4996562;28;20111;-79
2022/10/22 10:27:08;;;;;;;8.63;3.33;;;30.10;68.50;;;;;;5010300;28;20029;-77
2022/10/22 10:29:48;;;;;;;8.63;2.88;;;30.90;67.20;;;;;;5030033;28;20028;-78
2022/10/22 10:32:54;;;;;;;8.63;3.17;;;31.60;67.90;;;;;;5007030;28;20110;-77
2022/10/22 10:35:26;;;;;;;5.97;3.63;;;32.20;65.40;;;;;;5014186;28;20080;-77
2022/10/22 10:38:19;;;;;;;8.07;2.75;;;32.20;64.90;;;;;;5028367;28;20024;-78
2022/10/22 10:40:54;;;;;;;7.70;3.10;;;31.90;64.10;;;;;;5023561;28;20227;-78
2022/10/22 10:43:24;;;;;;;7.30;3.22;;;32.20;64.50;;;;;;5005399;28;20025;-77
2022/10/22 10:46:01;;;;;;;;;;;32.00;65.60;;;;;;5001394;28;20021;-78
2022/10/22 10:48:40;;;;;;;8.63;3.20;;;32.20;64.80;;;;;;4998269;28;19915;-78
2022/10/22 10:51:10;;;;;;;5.93;2.60;;;33.00;63.50;;;;;;5003136;28;20314;-78
2022/10/22 10:53:58;;;;;;;12.63;3.70;;;32.50;66.00;;;;;;5011327;28;20028;-78
2022/10/22 10:56:48;;;;;;;7.53;3.22;;;32.40;64.20;;;;;;5014825;28;20056;-78
2022/10/22 10:59:24;;;;;;;7.82;3.17;;;32.40;64.10;;;;;;5014777;28;20112;-78
2022/10/22 11:01:52;;;;;;;6.97;2.85;;;32.20;64.40;;;;;;5018641;28;20137;-78
2022/10/22 11:05:04;;;;;;;6.05;2.55;;;31.40;65.40;;;;;;5004149;28;20492;-78
2022/10/22 11:07:55;;;;;;;8.82;1.90;;;30.70;68.20;;;;;;5000967;28;20025;-77
2022/10/22 11:10:27;;;;;;;9.90;2.00;;;31.20;65.60;;;;;;5012490;28;20038;-78
2022/10/22 11:13:00;;;;;;;3.55;1.67;;;30.90;64.40;;;;;;5026616;28;20113;-77
2022/10/22 11:15:32;;;;;;;4.38;1.67;;;31.40;64.40;;;;;;5006444;28;20030;-78
2022/10/22 11:18:24;;;;;;;2.97;1.80;;;31.40;64.60;;;;;;4995945;28;20064;-77
2022/10/22 11:21:08;;;;;;;5.32;2.47;;;31.20;65.70;;;;;;4966011;28;20096;-77
2022/10/22 11:23:43;;;;;;;3.92;1.77;;;31.20;64.40;;;;;;4995727;28;20057;-77
2022/10/22 11:26:36;;;;;;;3.20;1.73;;;31.80;62.60;;;;;;4996161;28;20037;-78
2022/10/22 11:29:12;;;;;;;4.05;1.67;;;31.40;65.20;;;;;;4995419;28;20487;-78
2022/10/22 11:31:38;;;;;;;5.18;1.90;;;30.80;65.90;;;;;;4994378;28;20040;-78
2022/10/22 11:34:29;;;;;;;5.43;1.80;;;31.20;66.20;;;;;;4997866;28;20242;-78
2022/10/22 11:36:59;;;;;;;4.53;1.80;;;31.80;63.70;;;;;;5005055;28;20032;-78
2022/10/22 11:39:47;;;;;;;4.03;2.00;;;31.40;64.40;;;;;;5023404;28;20022;-78
2022/10/22 11:42:47;;;;;;;10.05;2.25;;;31.60;63.30;;;;;;5021260;28;20064;-77
2022/10/22 11:45:12;;;;;;;4.68;1.75;;;30.40;64.80;;;;;;4992340;28;20133;-78
2022/10/22 11:48:03;;;;;;;6.10;2.35;;;28.70;67.60;;;;;;5003319;28;20589;-77
2022/10/22 11:50:48;;;;;;;4.32;2.25;;;27.90;70.00;;;;;;5012220;28;20022;-77
2022/10/22 11:53:17;;;;;;;5.07;2.38;;;26.90;72.90;;;;;;5026903;28;20036;-81
2022/10/22 12:06:36;;;;;;;6.75;2.38;;;24.20;80.10;;;;;;4914063;29;20039;-81
2022/10/22 12:09:06;;;;;;;7.25;2.42;;;23.30;83.90;;;;;;4956727;28;20512;-78
2022/10/22 12:11:44;;;;;;;7.45;2.78;;;22.60;87.30;;;;;;4990662;28;20032;-78
2022/10/22 12:14:39;;;;;;;6.63;2.40;;;22.30;87.80;;;;;;5004666;28;20125;-78
2022/10/22 12:17:16;;;;;;;5.95;3.03;;;21.90;90.10;;;;;;5011285;28;20022;-78
2022/10/22 12:20:01;;;;;;;8.73;3.00;;;21.70;90.70;;;;;;5006646;28;20022;-77
2022/10/22 12:22:30;;;;;;;7.57;2.75;;;21.40;91.50;;;;;;4993253;28;20029;-78
2022/10/22 12:25:00;;;;;;;4.90;2.80;;;21.10;92.10;;;;;;4993478;28;20470;-78
2022/10/22 12:27:37;;;;;;;3.92;2.65;;;21.20;92.50;;;;;;4993573;28;20037;-77
2022/10/22 12:30:29;;;;;;;11.27;3.33;;;21.20;93.20;;;;;;5011145;28;20164;-78
2022/10/22 12:33:10;;;;;;;6.15;2.60;;;21.10;93.00;;;;;;4933219;29;20060;-77
2022/10/22 12:36:03;;;;;;;11.05;3.28;;;21.00;94.00;;;;;;4992614;28;20033;-78
2022/10/22 12:38:28;;;;;;;4.28;2.92;;;20.60;95.80;;;;;;5008357;28;20113;-77
2022/10/22 12:40:55;;;;;;;5.97;3.40;;;20.60;96.10;;;;;;4993385;28;20569;-77
2022/10/22 12:43:29;;;;;;;6.28;3.35;;;20.40;96.90;;;;;;5010458;28;20022;-77
2022/10/22 12:46:03;;;;;;;5.82;2.83;;;20.50;97.80;;;;;;4993181;28;20391;-78
2022/10/22 12:48:37;;;;;;;3.97;2.83;;;20.40;98.40;;;;;;4993413;28;20021;-77
2022/10/22 12:51:06;;;;;;;6.63;3.05;;;20.40;99.50;;;;;;4993598;28;20847;-77
2022/10/22 12:53:38;;;;;;;7.32;3.03;;;20.50;98.40;;;;;;5010736;28;20022;-77
2022/10/22 12:56:15;;;;;;;6.60;3.47;;;20.50;99.10;;;;;;5011672;28;20083;-77
2022/10/22 12:58:58;;;;;;;5.47;3.08;;;20.50;98.90;;;;;;4993046;28;20026;-77
2022/10/22 13:01:28;;;;;;;5.55;2.90;;;20.70;99.10;;;;;;4997130;28;20034;-77
2022/10/22 13:04:25;;;;;;;8.70;2.95;;;20.70;98.40;;;;;;4998220;28;20034;-78
2022/10/22 13:07:13;;;;;;;5.72;2.97;;;20.70;99.00;;;;;;5003316;28;20062;-77
2022/10/22 13:09:46;;;;;;;4.93;3.15;;;20.60;99.60;;;;;;5009469;28;20056;-77
2022/10/22 13:12:18;;;;;;;5.72;2.97;;;20.50;99.70;;;;;;5016378;28;20033;-78
2022/10/22 13:14:51;;;;;;;5.47;3.15;;;20.60;99.90;;;;;;5016678;28;20124;-77
2022/10/22 13:17:36;;;;;;;10.65;2.88;;;20.60;99.90;;;;;;5034071;28;20017;-77